Time;durP1;ratioP1;P1;durP2;ratioP2;P2;SDS_P1;SDS_P2;PMS_P1;PMS_P2;Temp;Humidity;BMP_temperature;BMP_pressure;BME280_temperature;BME280_humidity;BME280_pressure;Samples;Min_cycle;Max_cycle;Signal;HPM_P1;HPM_P2
2023/09/30 00:00:00;;;;;;;15.23;9.18;;;;;;;11.43;100.00;102443.78;5051652;28;20155;-55
2023/09/30 00:02:25;;;;;;;14.98;9.43;;;;;;;11.42;100.00;102434.94;5052333;28;20028;-52
2023/09/30 00:04:51;;;;;;;16.55;9.45;;;;;;;11.43;100.00;102443.78;5052048;28;20481;-54
2023/09/30 00:07:16;;;;;;;13.32;9.75;;;;;;;11.44;100.00;102442.81;5051248;28;20040;-54
2023/09/30 00:09:41;;;;;;;16.08;9.85;;;;;;;11.41;100.00;102441.19;5051958;28;20032;-55
2023/09/30 00:12:07;;;;;;;15.05;9.35;;;;;;;11.43;100.00;102441.97;5052396;28;20068;-52
2023/09/30 00:14:32;;;;;;;17.55;10.20;;;;;;;11.42;100.00;102444.72;5051954;28;20037;-53
2023/09/30 00:16:57;;;;;;;18.83;10.05;;;;;;;11.44;100.00;102448.13;5051340;28;20040;-53
2023/09/30 00:19:22;;;;;;;14.57;10.07;;;;;;;11.47;100.00;102450.63;5051768;28;20498;-54
2023/09/30 00:21:48;;;;;;;15.55;10.32;;;;;;;11.47;100.00;102456.84;5052015;28;20063;-53
2023/09/30 00:24:13;;;;;;;15.27;10.32;;;;;;;11.47;100.00;102446.19;5050491;28;20036;-52
2023/09/30 00:26:39;;;;;;;14.07;10.10;;;;;;;11.48;100.00;102452.38;5050861;28;20048;-53
2023/09/30 00:29:05;;;;;;;15.85;9.70;;;;;;;11.47;100.00;102448.84;5051698;28;20029;-52
2023/09/30 00:31:30;;;;;;;15.55;10.02;;;;;;;11.49;100.00;102432.81;5051803;28;20024;-55
2023/09/30 00:33:56;;;;;;;16.58;9.90;;;;;;;11.50;100.00;102433.66;5050734;28;20120;-53
2023/09/30 00:36:21;;;;;;;14.20;9.43;;;;;;;11.52;100.00;102443.25;5051821;28;20044;-55
2023/09/30 00:38:47;;;;;;;18.00;10.43;;;;;;;11.51;100.00;102459.31;5050905;28;20032;-52
2023/09/30 00:41:12;;;;;;;15.95;10.55;;;;;;;11.52;100.00;102472.53;5051593;28;20104;-54
2023/09/30 00:43:37;;;;;;;14.88;10.50;;;;;;;11.51;100.00;102469.94;5049283;28;20073;-55
2023/09/30 00:46:29;;;;;;;14.57;10.48;;;;;;;11.53;100.00;102466.28;5050613;28;20107;-55
2023/09/30 00:48:58;;;;;;;16.52;10.20;;;;;;;11.50;100.00;102461.13;5049090;28;20017;-53
2023/09/30 00:51:23;;;;;;;13.33;9.70;;;;;;;11.52;100.00;102447.72;5051650;28;20028;-55
2023/09/30 00:53:51;;;;;;;16.45;10.35;;;;;;;11.47;100.00;102446.19;5049935;28;20024;-55
2023/09/30 00:56:18;;;;;;;15.68;10.52;;;;;;;11.51;100.00;102449.53;5047868;28;20025;-53
2023/09/30 00:58:47;;;;;;;14.93;10.52;;;;;;;11.48;100.00;102463.88;5051129;28;20446;-54
2023/09/30 01:01:12;;;;;;;;;;;;;;;11.58;100.00;102472.19;5051863;28;20036;-55
2023/09/30 01:03:38;;;;;;;16.13;10.63;;;;;;;11.52;100.00;102463.69;5050030;28;19909;-52
2023/09/30 01:06:03;;;;;;;14.88;10.20;;;;;;;11.48;100.00;102463.00;5051232;28;20051;-52
2023/09/30 01:08:29;;;;;;;16.70;10.27;;;;;;;11.45;100.00;102463.16;5050610;28;20021;-55
2023/09/30 01:10:55;;;;;;;13.00;10.13;;;;;;;11.45;100.00;102464.03;5051047;28;20028;-52
2023/09/30 01:13:20;;;;;;;16.90;10.52;;;;;;;11.43;100.00;102465.06;5050441;28;20034;-51
2023/09/30 01:15:47;;;;;;;18.40;10.25;;;;;;;11.40;100.00;102467.88;5050063;28;20534;-54
2023/09/30 01:18:12;;;;;;;16.13;10.00;;;;;;;11.43;100.00;102478.38;5051415;28;20467;-55
2023/09/30 01:20:37;;;;;;;14.05;10.07;;;;;;;11.40;100.00;102482.03;5051440;28;20083;-53
2023/09/30 01:23:03;;;;;;;15.55;10.90;;;;;;;11.39;100.00;102496.31;5050613;28;20071;-51
2023/09/30 01:25:29;;;;;;;16.63;10.80;;;;;;;11.39;100.00;102500.75;5051262;28;20116;-51
2023/09/30 01:27:54;;;;;;;17.08;10.38;;;;;;;11.35;100.00;102513.34;5050388;28;20017;-53
2023/09/30 01:30:22;;;;;;;18.67;10.63;;;;;;;11.35;100.00;102507.19;5049101;28;20040;-51
2023/09/30 01:32:48;;;;;;;14.93;10.98;;;;;;;11.31;100.00;102506.50;5051390;28;20049;-51
2023/09/30 01:35:13;;;;;;;18.60;10.48;;;;;;;11.28;100.00;102501.34;5050299;28;20029;-53
2023/09/30 01:37:38;;;;;;;13.85;10.35;;;;;;;11.24;100.00;102500.63;5050995;28;20502;-53
2023/09/30 01:40:08;;;;;;;13.55;11.02;;;;;;;11.23;100.00;102498.91;5049653;28;20025;-51
2023/09/30 01:42:33;;;;;;;;;;;;;;;11.32;100.00;102494.03;5051095;28;20055;-51
2023/09/30 01:44:58;;;;;;;15.50;10.63;;;;;;;11.19;100.00;102486.72;5051110;28;19991;-53
2023/09/30 01:47:23;;;;;;;16.00;10.63;;;;;;;11.20;100.00;102480.44;5050173;28;20334;-51
2023/09/30 01:49:49;;;;;;;16.88;11.15;;;;;;;11.16;100.00;102472.69;5051142;28;20418;-53
2023/09/30 01:52:14;;;;;;;15.52;10.88;;;;;;;11.11;100.00;102479.13;5049861;28;20017;-54
2023/09/30 01:54:40;;;;;;;16.52;10.80;;;;;;;11.10;100.00;102484.53;5049766;28;20064;-53
2023/09/30 01:57:05;;;;;;;16.88;11.02;;;;;;;11.08;100.00;102476.63;5050636;28;20075;-55
2023/09/30 01:59:30;;;;;;;15.18;10.80;;;;;;;11.00;100.00;102484.16;5051273;28;20041;-54
2023/09/30 02:01:56;;;;;;;18.73;11.10;;;;;;;11.05;100.00;102495.41;5050269;28;20578;-55
2023/09/30 02:04:21;;;;;;;15.98;10.45;;;;;;;11.05;100.00;102489.25;5051052;28;20364;-54
2023/09/30 02:06:46;;;;;;;14.48;10.27;;;;;;;11.04;100.00;102487.50;5049624;28;20112;-55
2023/09/30 02:09:12;;;;;;;14.15;10.82;;;;;;;11.02;100.00;102494.72;5051012;28;20033;-54
2023/09/30 02:11:37;;;;;;;14.38;11.30;;;;;;;11.00;100.00;102491.28;5049611;28;20028;-54
2023/09/30 02:14:05;;;;;;;14.63;10.48;;;;;;;10.97;100.00;102489.63;5051029;28;20425;-55
2023/09/30 02:16:31;;;;;;;16.45;10.50;;;;;;;11.00;100.00;102499.25;5052917;28;20032;-52
2023/09/30 02:18:56;;;;;;;17.10;11.35;;;;;;;10.98;100.00;102496.69;5054493;28;20025;-54
2023/09/30 02:21:22;;;;;;;18.02;11.82;;;;;;;10.96;100.00;102503.00;5053153;28;20021;-53
2023/09/30 02:23:48;;;;;;;16.73;11.32;;;;;;;10.96;100.00;102503.88;5054239;28;20032;-54
2023/09/30 02:26:16;;;;;;;13.98;10.88;;;;;;;10.93;100.00;102502.22;5051406;28;20025;-54
2023/09/30 02:28:41;;;;;;;15.35;11.13;;;;;;;10.92;100.00;102497.88;5051100;28;20021;-52
2023/09/30 02:31:07;;;;;;;17.08;11.32;;;;;;;10.89;100.00;102487.38;5052631;28;20025;-52
2023/09/30 02:33:35;;;;;;;13.63;10.38;;;;;;;10.86;100.00;102479.56;5054096;28;20372;-53
2023/09/30 02:36:01;;;;;;;15.23;10.90;;;;;;;10.87;100.00;102483.91;5053816;28;20036;-53
2023/09/30 02:38:26;;;;;;;16.30;11.05;;;;;;;10.87;100.00;102488.38;5053518;28;20032;-54
2023/09/30 02:40:51;;;;;;;15.55;11.10;;;;;;;10.84;100.00;102493.84;5051573;28;20116;-55
2023/09/30 02:43:17;;;;;;;14.65;10.75;;;;;;;10.80;100.00;102487.00;5053363;28;20053;-55
2023/09/30 02:45:43;;;;;;;17.63;11.63;;;;;;;10.81;100.00;102480.72;5053810;28;20025;-55
2023/09/30 02:48:09;;;;;;;19.90;11.38;;;;;;;10.80;100.00;102471.06;5053240;28;20032;-52
2023/09/30 02:50:34;;;;;;;16.65;11.32;;;;;;;10.80;100.00;102473.72;5053239;28;20021;-52
2023/09/30 02:53:00;;;;;;;17.40;11.25;;;;;;;10.77;100.00;102474.72;5053587;28;20028;-53
2023/09/30 02:55:25;;;;;;;16.27;11.48;;;;;;;10.78;100.00;102476.44;5052251;28;20021;-54
2023/09/30 02:57:50;;;;;;;17.30;11.35;;;;;;;10.79;100.00;102480.84;5053575;28;20083;-51
2023/09/30 03:00:23;;;;;;;17.23;11.75;;;;;;;10.76;100.00;102478.31;5053483;28;20039;-54
2023/09/30 03:02:53;;;;;;;18.75;11.63;;;;;;;10.73;100.00;102481.13;5053407;28;20078;-53
2023/09/30 03:05:18;;;;;;;17.00;10.50;;;;;;;10.72;100.00;102484.72;5049486;28;20029;-55
2023/09/30 03:07:45;;;;;;;14.30;11.30;;;;;;;10.72;100.00;102496.22;5053244;28;20094;-54
2023/09/30 03:10:10;;;;;;;16.30;11.85;;;;;;;10.71;100.00;102494.50;5053438;28;20112;-54
2023/09/30 03:12:36;;;;;;;19.83;12.15;;;;;;;10.70;100.00;102491.91;5053074;28;20107;-53
2023/09/30 03:15:04;;;;;;;13.82;10.82;;;;;;;10.70;100.00;102483.94;5052974;28;20025;-51
2023/09/30 03:17:29;;;;;;;16.75;11.10;;;;;;;10.71;100.00;102498.97;5053001;28;20367;-53
2023/09/30 03:19:57;;;;;;;20.63;11.85;;;;;;;10.63;100.00;102488.72;5052354;28;20039;-53
2023/09/30 03:22:22;;;;;;;14.35;11.38;;;;;;;10.72;100.00;102496.22;5052808;28;20057;-55
2023/09/30 03:24:47;;;;;;;21.65;12.63;;;;;;;10.73;100.00;102476.66;5053507;28;20444;-54
2023/09/30 03:27:13;;;;;;;17.55;12.25;;;;;;;10.72;100.00;102472.31;5052250;28;20483;-54
2023/09/30 03:29:38;;;;;;;21.45;12.35;;;;;;;10.73;100.00;102460.72;5052589;28;20029;-52
2023/09/30 03:32:03;;;;;;;18.02;12.07;;;;;;;10.73;100.00;102467.84;5052886;28;20487;-52
2023/09/30 03:34:29;;;;;;;18.67;12.43;;;;;;;10.72;100.00;102464.34;5052309;28;20429;-55
2023/09/30 03:36:57;;;;;;;16.83;12.32;;;;;;;10.70;100.00;102466.19;5052899;28;20115;-53
2023/09/30 03:39:27;;;;;;;15.38;12.15;;;;;;;10.72;100.00;102468.78;5052359;28;20032;-55
2023/09/30 03:41:59;;;;;;;19.00;12.93;;;;;;;10.69;100.00;102461.84;5052875;28;20509;-55
2023/09/30 03:44:24;;;;;;;15.77;12.32;;;;;;;10.68;100.00;102465.41;5049033;28;20645;-54
2023/09/30 03:46:51;;;;;;;18.30;12.93;;;;;;;10.69;100.00;102475.13;5051743;28;20017;-55
2023/09/30 03:49:16;;;;;;;16.85;12.00;;;;;;;10.69;100.00;102477.78;5052549;28;20033;-54
2023/09/30 03:51:42;;;;;;;16.77;11.73;;;;;;;10.67;100.00;102484.09;5050984;28;20439;-57
2023/09/30 03:54:08;;;;;;;18.13;12.88;;;;;;;10.63;100.00;102475.44;5052568;28;20086;-53
2023/09/30 03:56:34;;;;;;;18.50;13.10;;;;;;;10.63;100.00;102470.13;5051426;28;20025;-54
2023/09/30 03:58:59;;;;;;;20.00;13.23;;;;;;;10.67;100.00;102461.03;5052459;28;20094;-52
2023/09/30 04:01:26;;;;;;;17.77;12.07;;;;;;;10.64;100.00;102466.53;5051165;28;20032;-55
2023/09/30 04:03:54;;;;;;;18.80;13.05;;;;;;;10.63;100.00;102464.78;5051717;28;20048;-54
2023/09/30 04:06:19;;;;;;;21.73;14.63;;;;;;;10.63;100.00;102472.78;5051437;28;20013;-52
2023/09/30 04:08:45;;;;;;;19.58;12.57;;;;;;;10.63;100.00;102471.91;5051830;28;20029;-51
2023/09/30 04:11:14;;;;;;;20.48;12.35;;;;;;;10.63;100.00;102469.25;5051722;28;20112;-53
2023/09/30 04:13:40;;;;;;;18.02;12.25;;;;;;;10.60;100.00;102472.91;5052101;28;20036;-52
2023/09/30 04:16:05;;;;;;;18.63;13.55;;;;;;;10.61;100.00;102476.44;5052350;28;20048;-52
2023/09/30 04:18:30;;;;;;;17.35;13.05;;;;;;;10.60;100.00;102477.38;5051915;28;20021;-53
2023/09/30 04:20:56;;;;;;;16.08;12.63;;;;;;;10.59;100.00;102475.66;5051092;28;20025;-52
2023/09/30 04:23:22;;;;;;;17.65;12.95;;;;;;;10.58;100.00;102471.28;5051729;28;20033;-53
2023/09/30 04:25:47;;;;;;;19.17;12.95;;;;;;;10.57;100.00;102467.75;5051513;28;20538;-56
2023/09/30 04:28:15;;;;;;;20.77;12.82;;;;;;;10.58;100.00;102473.94;5051549;28;20147;-52
2023/09/30 04:30:41;;;;;;;16.65;12.40;;;;;;;10.55;100.00;102472.28;5051010;28;20127;-55
2023/09/30 04:33:06;;;;;;;19.85;13.20;;;;;;;10.52;100.00;102475.09;5051837;28;20116;-52
2023/09/30 04:35:32;;;;;;;18.80;12.68;;;;;;;10.52;100.00;102475.97;5051491;28;20021;-53
2023/09/30 04:38:01;;;;;;;18.98;12.18;;;;;;;10.51;100.00;102476.91;5050970;28;20116;-52
2023/09/30 04:40:26;;;;;;;20.02;13.30;;;;;;;10.46;100.00;102489.56;5051367;28;20052;-52
2023/09/30 04:42:55;;;;;;;18.10;11.85;;;;;;;10.47;100.00;102493.91;5051144;28;20057;-55
2023/09/30 04:45:20;;;;;;;17.80;13.00;;;;;;;10.45;100.00;102490.50;5050518;28;20426;-55
2023/09/30 04:47:48;;;;;;;17.98;12.15;;;;;;;10.42;100.00;102492.44;5050693;28;20049;-52
2023/09/30 04:50:16;;;;;;;20.13;14.10;;;;;;;10.41;100.00;102486.28;5050029;28;20453;-53
2023/09/30 04:52:41;;;;;;;19.13;13.00;;;;;;;10.37;100.00;102479.38;5049052;28;20029;-52
2023/09/30 04:55:08;;;;;;;18.38;12.70;;;;;;;10.39;100.00;102481.97;5051691;28;20025;-55
2023/09/30 04:57:33;;;;;;;18.05;12.52;;;;;;;10.34;100.00;102491.03;5050174;28;20032;-55
2023/09/30 04:59:59;;;;;;;20.55;13.10;;;;;;;10.36;100.00;102499.78;5051285;28;20498;-52
2023/09/30 05:02:24;;;;;;;19.58;12.63;;;;;;;10.32;100.00;102506.16;5051240;28;20032;-52
2023/09/30 05:04:50;;;;;;;18.33;12.90;;;;;;;10.29;100.00;102508.97;5051335;28;20099;-53
2023/09/30 05:07:16;;;;;;;17.50;12.38;;;;;;;10.28;100.00;102501.91;5050399;28;20044;-53
2023/09/30 05:09:42;;;;;;;18.08;12.50;;;;;;;10.29;100.00;102503.66;5050695;28;20021;-53
2023/09/30 05:12:08;;;;;;;20.00;13.27;;;;;;;10.27;100.00;102508.16;5051271;28;20028;-52
2023/09/30 05:14:33;;;;;;;19.23;13.38;;;;;;;10.26;100.00;102498.47;5051169;28;20508;-53
2023/09/30 05:16:59;;;;;;;20.05;13.15;;;;;;;10.27;100.00;102502.84;5048587;28;20282;-53
2023/09/30 05:19:24;;;;;;;19.70;13.40;;;;;;;10.27;100.00;102502.00;5051253;28;20033;-54
2023/09/30 05:21:49;;;;;;;19.65;13.45;;;;;;;10.25;100.00;102502.06;5050349;28;20021;-55
2023/09/30 05:24:18;;;;;;;17.45;12.40;;;;;;;10.23;100.00;102503.94;5050900;28;20028;-50
2023/09/30 05:26:44;;;;;;;18.77;12.80;;;;;;;10.23;100.00;102497.78;5052006;28;20486;-50
2023/09/30 05:29:10;;;;;;;17.55;12.65;;;;;;;10.19;100.00;102508.53;5047588;28;20044;-51
2023/09/30 05:31:36;;;;;;;16.35;12.70;;;;;;;10.21;100.00;102510.25;5051820;28;20041;-52
2023/09/30 05:34:02;;;;;;;22.10;14.25;;;;;;;10.18;100.00;102511.28;5051475;28;20029;-51
2023/09/30 05:36:27;;;;;;;23.02;14.55;;;;;;;10.16;100.00;102516.66;5050349;28;20040;-51
2023/09/30 05:38:55;;;;;;;20.67;14.27;;;;;;;10.18;100.00;102517.44;5051113;28;20033;-52
2023/09/30 05:41:20;;;;;;;19.85;12.95;;;;;;;10.16;100.00;102513.16;5047967;28;20491;-51
2023/09/30 05:43:46;;;;;;;20.60;13.68;;;;;;;10.16;100.00;102511.34;5048480;28;20080;-53
2023/09/30 05:46:11;;;;;;;19.67;13.93;;;;;;;10.18;100.00;102516.56;5046736;28;20029;-55
2023/09/30 05:48:38;;;;;;;20.65;14.40;;;;;;;10.17;100.00;102523.69;5051178;28;20112;-52
2023/09/30 05:51:04;;;;;;;18.95;14.30;;;;;;;10.21;100.00;102524.41;5052879;28;20025;-53
2023/09/30 05:53:32;;;;;;;20.88;14.02;;;;;;;10.25;100.00;102519.81;5053517;28;20029;-53
2023/09/30 05:55:59;;;;;;;24.73;14.55;;;;;;;10.26;100.00;102518.84;5054099;28;20029;-54
2023/09/30 05:58:25;;;;;;;25.33;14.30;;;;;;;10.28;100.00;102523.16;5048360;28;20124;-55
2023/09/30 06:00:51;;;;;;;23.88;14.93;;;;;;;10.30;100.00;102525.75;5045339;28;20112;-55
2023/09/30 06:03:16;;;;;;;20.30;14.02;;;;;;;10.31;100.00;102533.63;5048670;28;20379;-52
2023/09/30 06:05:42;;;;;;;21.33;13.77;;;;;;;10.35;100.00;102529.91;5044639;28;20059;-55
2023/09/30 06:08:10;;;;;;;22.00;14.35;;;;;;;10.35;100.00;102527.25;5047842;28;20032;-52
2023/09/30 06:10:38;;;;;;;21.67;13.80;;;;;;;10.39;100.00;102529.78;5044611;28;20052;-52
2023/09/30 06:13:04;;;;;;;20.58;13.98;;;;;;;10.44;100.00;102527.75;5045125;28;20361;-52
2023/09/30 06:15:29;;;;;;;22.73;14.75;;;;;;;10.44;100.00;102528.63;5048821;28;20028;-52
2023/09/30 06:17:55;;;;;;;23.42;13.80;;;;;;;10.49;100.00;102525.72;5051629;28;20493;-55
2023/09/30 06:20:22;;;;;;;24.08;15.23;;;;;;;10.50;100.00;102522.16;5051158;28;20039;-54
2023/09/30 06:22:51;;;;;;;25.42;14.80;;;;;;;10.53;100.00;102516.69;5053408;28;20041;-54
2023/09/30 06:25:17;;;;;;;22.48;14.52;;;;;;;10.59;100.00;102519.03;5051209;28;20032;-52
2023/09/30 06:27:47;;;;;;;23.17;14.77;;;;;;;10.59;100.00;102521.69;5048892;28;20071;-53
2023/09/30 06:30:13;;;;;;;23.48;15.05;;;;;;;10.62;100.00;102524.19;5041617;28;20118;-53
2023/09/30 06:32:40;;;;;;;23.00;14.45;;;;;;;10.66;100.00;102524.91;5049205;28;20016;-54
2023/09/30 06:35:06;;;;;;;23.33;14.88;;;;;;;10.68;100.00;102523.88;5048570;28;20105;-53
2023/09/30 06:37:32;;;;;;;23.70;13.60;;;;;;;10.72;100.00;102521.94;5053230;28;20363;-51
2023/09/30 06:39:57;;;;;;;22.05;15.18;;;;;;;10.75;100.00;102519.13;5041674;28;20442;-53
2023/09/30 06:42:27;;;;;;;22.35;14.70;;;;;;;10.79;100.00;102518.03;5052643;28;20041;-54
2023/09/30 06:44:53;;;;;;;24.95;15.23;;;;;;;10.84;100.00;102526.63;5048014;28;20024;-53
2023/09/30 06:47:18;;;;;;;21.25;14.50;;;;;;;10.88;100.00;102520.22;5049995;28;20033;-53
2023/09/30 06:49:45;;;;;;;21.80;15.15;;;;;;;10.90;100.00;102528.97;5049957;28;20021;-53
2023/09/30 06:52:10;;;;;;;25.88;15.05;;;;;;;10.95;100.00;102533.19;5051593;28;20032;-54
2023/09/30 06:54:35;;;;;;;19.60;14.57;;;;;;;11.00;100.00;102541.81;5047026;28;20404;-53
2023/09/30 06:57:00;;;;;;;27.30;16.38;;;;;;;11.05;100.00;102543.28;5048002;28;20047;-53
2023/09/30 06:59:26;;;;;;;23.00;14.73;;;;;;;11.07;100.00;102557.38;5049710;28;20091;-54
2023/09/30 07:01:51;;;;;;;22.33;14.52;;;;;;;11.15;100.00;102564.94;5048700;28;20071;-52
2023/09/30 07:04:16;;;;;;;26.48;15.27;;;;;;;11.24;100.00;102564.47;5048237;28;20504;-53
2023/09/30 07:06:42;;;;;;;25.58;15.77;;;;;;;11.32;100.00;102565.88;5050773;28;20033;-52
2023/09/30 07:09:07;;;;;;;35.40;16.50;;;;;;;11.40;100.00;102579.63;5051629;28;20028;-55
2023/09/30 07:11:33;;;;;;;28.65;16.05;;;;;;;11.51;100.00;102584.38;5049563;28;20025;-53
2023/09/30 07:13:58;;;;;;;30.67;15.63;;;;;;;11.58;100.00;102580.47;5047791;28;20435;-52
2023/09/30 07:16:24;;;;;;;25.48;14.98;;;;;;;11.65;100.00;102576.53;5038725;28;20040;-54
2023/09/30 07:18:50;;;;;;;29.85;15.68;;;;;;;11.74;100.00;102573.38;5051104;28;20056;-53
2023/09/30 07:21:15;;;;;;;31.23;15.05;;;;;;;11.80;100.00;102570.38;5052458;28;20031;-55
2023/09/30 07:23:41;;;;;;;28.77;15.85;;;;;;;11.90;100.00;102593.84;5052944;28;20017;-52
2023/09/30 07:26:06;;;;;;;32.25;16.52;;;;;;;11.99;100.00;102591.59;5051694;28;20024;-55
2023/09/30 07:28:32;;;;;;;31.40;15.32;;;;;;;12.06;100.00;102609.88;5052451;28;20040;-54
2023/09/30 07:30:58;;;;;;;27.40;15.55;;;;;;;12.17;100.00;102615.47;5052797;28;20025;-55
2023/09/30 07:33:23;;;;;;;29.48;15.70;;;;;;;12.25;100.00;102617.72;5052758;28;20102;-54
2023/09/30 07:35:49;;;;;;;27.75;15.50;;;;;;;12.32;100.00;102617.31;5052781;28;20108;-54
2023/09/30 07:38:14;;;;;;;33.10;15.75;;;;;;;12.48;100.00;102629.75;5052146;28;20403;-55
2023/09/30 07:40:40;;;;;;;36.50;17.35;;;;;;;12.62;100.00;102636.97;5051389;28;20043;-53
2023/09/30 07:43:05;;;;;;;30.67;16.67;;;;;;;12.74;100.00;102626.47;5046364;28;20132;-53
2023/09/30 07:45:31;;;;;;;29.83;15.85;;;;;;;12.89;100.00;102637.19;5051035;28;20097;-52
2023/09/30 07:47:58;;;;;;;28.42;15.25;;;;;;;13.04;100.00;102622.09;5046302;28;20036;-51
2023/09/30 07:50:23;;;;;;;35.15;15.55;;;;;;;13.18;100.00;102621.31;5049707;28;20053;-52
2023/09/30 07:52:49;;;;;;;34.33;15.40;;;;;;;13.29;100.00;102608.19;5053825;28;20052;-51
2023/09/30 07:55:14;;;;;;;32.22;14.68;;;;;;;13.45;100.00;102606.31;5050170;28;20111;-52
2023/09/30 07:57:44;;;;;;;34.85;15.85;;;;;;;13.59;100.00;102609.97;5052090;28;20146;-52
2023/09/30 08:00:14;;;;;;;29.05;13.93;;;;;;;13.73;100.00;102603.78;5050178;28;20041;-55
2023/09/30 08:02:40;;;;;;;29.65;13.65;;;;;;;13.87;100.00;102618.00;5048989;28;20047;-53
2023/09/30 08:05:06;;;;;;;25.50;13.40;;;;;;;13.99;100.00;102619.06;5050013;28;20108;-52
2023/09/30 08:07:31;;;;;;;30.90;13.27;;;;;;;14.08;100.00;102614.94;5047665;28;20025;-52
2023/09/30 08:09:57;;;;;;;31.60;13.05;;;;;;;14.14;100.00;102614.56;5049550;28;20029;-52
2023/09/30 08:12:22;;;;;;;29.23;12.73;;;;;;;14.27;100.00;102609.25;5048777;28;20112;-51
2023/09/30 08:14:48;;;;;;;25.05;12.13;;;;;;;14.40;100.00;102606.66;5050005;28;20027;-52
2023/09/30 08:17:14;;;;;;;29.55;13.45;;;;;;;14.54;100.00;102597.78;5047974;28;20094;-52
2023/09/30 08:19:40;;;;;;;23.95;12.30;;;;;;;14.68;100.00;102608.44;5043855;28;20049;-53
2023/09/30 08:22:06;;;;;;;25.80;11.95;;;;;;;14.77;100.00;102605.16;5028248;28;20067;-54
2023/09/30 08:24:32;;;;;;;23.05;11.32;;;;;;;14.85;100.00;102604.63;5039419;28;20074;-52
2023/09/30 08:26:57;;;;;;;23.33;10.90;;;;;;;14.90;100.00;102597.16;5050351;28;20112;-52
2023/09/30 08:29:22;;;;;;;24.85;11.30;;;;;;;14.94;100.00;102600.50;5042216;28;20118;-52
2023/09/30 08:31:50;;;;;;;26.00;11.20;;;;;;;15.04;100.00;102598.91;5046772;28;20025;-52
2023/09/30 08:34:16;;;;;;;21.50;10.90;;;;;;;15.17;100.00;102598.91;5046300;28;20066;-52
2023/09/30 08:36:42;;;;;;;24.13;11.50;;;;;;;15.32;100.00;102592.53;5049109;28;20032;-51
2023/09/30 08:39:07;;;;;;;23.40;11.60;;;;;;;15.51;100.00;102596.63;5051351;28;20029;-52
2023/09/30 08:41:34;;;;;;;22.65;11.02;;;;;;;15.65;100.00;102596.47;5047482;28;20036;-52
2023/09/30 08:44:04;;;;;;;22.40;11.88;;;;;;;15.80;100.00;102596.41;5047269;28;20178;-52
2023/09/30 08:46:34;;;;;;;20.60;10.52;;;;;;;15.98;100.00;102587.06;5051246;28;20025;-51
2023/09/30 08:49:05;;;;;;;20.10;11.32;;;;;;;16.11;100.00;102576.31;5046878;28;20037;-52
2023/09/30 08:51:31;;;;;;;23.35;11.00;;;;;;;16.29;100.00;102584.84;5051360;28;20131;-53
2023/09/30 08:53:58;;;;;;;20.02;10.30;;;;;;;16.49;100.00;102579.81;5050970;28;20131;-52
2023/09/30 08:56:27;;;;;;;23.25;10.25;;;;;;;16.74;100.00;102585.06;5051355;28;20493;-52
2023/09/30 08:58:56;;;;;;;22.80;9.60;;;;;;;16.92;100.00;102581.97;5051860;28;20024;-52
2023/09/30 09:01:22;;;;;;;18.25;8.90;;;;;;;17.16;100.00;102590.84;5049811;28;20105;-52
2023/09/30 09:03:52;;;;;;;21.73;9.20;;;;;;;17.30;100.00;102581.75;5050778;28;20522;-52
2023/09/30 09:06:18;;;;;;;17.20;9.13;;;;;;;17.49;100.00;102586.53;5050361;28;20064;-52
2023/09/30 09:08:43;;;;;;;17.42;8.55;;;;;;;17.68;100.00;102598.50;5049348;28;20029;-51
2023/09/30 09:11:09;;;;;;;17.50;8.87;;;;;;;17.78;99.42;102610.22;5051282;28;20053;-52
2023/09/30 09:13:55;;;;;;;18.35;9.15;;;;;;;17.94;100.00;102609.91;5051451;28;20282;-53
2023/09/30 09:16:21;;;;;;;20.15;8.73;;;;;;;18.19;100.00;102616.84;5050559;28;20082;-54
2023/09/30 09:18:47;;;;;;;16.60;7.70;;;;;;;18.31;96.58;102609.63;5051003;28;20479;-52
2023/09/30 09:21:17;;;;;;;16.15;7.72;;;;;;;18.57;94.47;102612.00;5051331;28;20387;-51
2023/09/30 09:23:47;;;;;;;12.30;7.65;;;;;;;18.65;93.50;102618.47;5050691;28;20025;-52
2023/09/30 09:26:26;;;;;;;14.23;7.35;;;;;;;18.82;94.45;102627.81;5055518;28;20021;-50
2023/09/30 09:28:59;;;;;;;18.30;7.03;;;;;;;19.02;91.27;102628.03;5054453;28;20127;-53
2023/09/30 09:31:34;;;;;;;17.23;7.10;;;;;;;19.25;91.31;102644.91;5051640;28;20033;-54
2023/09/30 09:34:00;;;;;;;13.77;6.72;;;;;;;19.40;86.89;102654.41;5054172;28;20483;-54
2023/09/30 09:36:58;;;;;;;12.75;6.88;;;;;;;19.54;92.88;102645.09;5054613;28;20383;-52
2023/09/30 09:39:30;;;;;;;14.48;7.93;;;;;;;19.70;87.68;102646.47;5011146;28;20041;-52
2023/09/30 09:41:57;;;;;;;14.02;7.13;;;;;;;19.93;86.93;102647.19;5054838;28;20064;-54
2023/09/30 09:44:27;;;;;;;12.75;7.53;;;;;;;20.06;85.93;102652.34;5054294;28;20044;-52
2023/09/30 09:46:53;;;;;;;16.38;7.72;;;;;;;20.24;82.02;102658.81;5054792;28;20086;-53
2023/09/30 09:49:19;;;;;;;16.48;7.05;;;;;;;20.46;82.70;102660.44;5053487;28;20025;-55
2023/09/30 09:51:46;;;;;;;21.02;7.93;;;;;;;20.52;79.91;102651.78;5053931;28;20139;-49
2023/09/30 09:54:16;;;;;;;12.80;7.32;;;;;;;20.61;81.12;102660.03;5051586;28;20033;-51
2023/09/30 09:56:44;;;;;;;13.88;7.53;;;;;;;20.47;78.39;102659.44;5051735;28;20029;-50
2023/09/30 09:59:11;;;;;;;17.50;8.05;;;;;;;20.66;79.16;102655.94;5054946;28;20427;-50
2023/09/30 10:01:39;;;;;;;15.60;8.07;;;;;;;20.72;76.95;102657.25;5055399;28;20097;-50
2023/09/30 10:04:05;;;;;;;15.63;8.30;;;;;;;20.87;77.53;102655.00;5054683;28;20348;-49
2023/09/30 10:06:38;;;;;;;12.43;7.70;;;;;;;20.87;77.41;102663.94;5040426;28;20037;-49
2023/09/30 10:09:08;;;;;;;12.70;7.05;;;;;;;20.94;74.17;102660.69;5044028;28;20024;-50
2023/09/30 10:11:35;;;;;;;12.40;7.22;;;;;;;21.13;73.79;102667.91;5044168;28;20021;-49
2023/09/30 10:14:02;;;;;;;16.55;6.85;;;;;;;21.20;76.71;102666.34;5047274;28;20163;-50
2023/09/30 10:16:37;;;;;;;13.75;7.25;;;;;;;21.25;73.34;102672.19;5041751;28;20037;-49
2023/09/30 10:19:09;;;;;;;14.48;7.13;;;;;;;21.30;73.28;102683.44;5042516;28;20029;-49
2023/09/30 10:21:35;;;;;;;15.35;6.72;;;;;;;21.37;71.09;102681.00;5045083;28;20068;-50
2023/09/30 10:24:39;;;;;;;10.23;6.63;;;;;;;21.54;77.20;102668.63;5046859;28;20436;-52
2023/09/30 10:27:22;;;;;;;11.48;6.82;;;;;;;21.60;75.12;102647.25;4972243;28;20045;-49
2023/09/30 10:29:49;;;;;;;12.82;7.20;;;;;;;21.66;69.72;102651.22;4970668;28;20027;-50
2023/09/30 10:32:14;;;;;;;12.82;6.35;;;;;;;21.71;71.54;102645.38;5020096;28;20120;-49
2023/09/30 10:34:47;;;;;;;13.63;6.55;;;;;;;21.65;70.02;102643.25;5051823;28;20315;-50
2023/09/30 10:37:24;;;;;;;11.07;5.40;;;;;;;21.57;70.89;102634.03;5052056;28;20214;-49
2023/09/30 10:39:58;;;;;;;9.93;4.88;;;;;;;21.56;69.29;102637.72;5043058;28;20041;-49
2023/09/30 10:42:44;;;;;;;11.18;4.63;;;;;;;21.52;71.68;102621.97;5044500;28;20053;-49
2023/09/30 10:45:45;;;;;;;10.75;4.70;;;;;;;21.46;71.05;102628.75;5048919;28;20501;-50
2023/09/30 10:48:41;;;;;;;9.52;4.93;;;;;;;21.43;71.53;102626.34;5052132;28;20374;-49
2023/09/30 10:51:20;;;;;;;11.10;5.03;;;;;;;21.37;70.78;102622.38;5034957;28;20269;-49
2023/09/30 10:54:00;;;;;;;10.90;4.18;;;;;;;21.23;71.49;102618.28;5049362;28;20037;-49
2023/09/30 10:56:32;;;;;;;9.63;4.68;;;;;;;21.17;67.94;102618.03;5048728;28;20040;-48
2023/09/30 10:58:57;;;;;;;16.25;4.70;;;;;;;21.15;67.58;102612.75;5048861;28;20037;-48
2023/09/30 11:01:24;;;;;;;10.10;4.53;;;;;;;21.04;67.89;102607.50;5047355;28;20028;-49
2023/09/30 11:03:58;;;;;;;10.02;3.97;;;;;;;21.11;67.55;102596.97;5051172;28;20089;-48